ENBR Airport Information

Runway Information
Runway 17 Length 9810 ft width 148 ft
Elevation 165 ft Threshold 886 ft Heading 171
Runway 35 Length 9810 ft Width 148 ft
Elevation 146 ft Threshold 889 ft Heading 351
Airport Frequencies
Type APP Name RADAR Frequency 121 MHZ
Type ARR Name ARR Frequency 125 MHZ
Type ATIS Name ATIS Frequency 125.25 MHZ
Type DIR Name DIRECTOR Frequency 118.85 MHZ
Type GND Name GND Frequency 121.9 MHZ
Type TWR Name TWR Frequency 119.1 MHZ
Airport Navaids
Type NDB Name Askoy Frequency 360 KHZ
Type NDB Name Bratta Frequency 336 KHZ
Type TACAN Name Flesland Frequency 114500 KHZ
Type VOR-DME Name Flesland Frequency 115550 KHZ
Type VOR-DME Name Vollo Frequency 114850 KHZ
Airport Weather Information & NOTAM
ADDS - METARS form results

(2136 UTC 12 December 2018)
Data provider http://aviationweather.gov/metar/data/
 
METAR text: ENBR 122120Z 13007KT 9999 FEW020 00/M06 Q1030 RMK WIND 1200FT 14015KT
Conditions at: ENBR (BERGEN/FLESLAND , NO) observed 2120 UTC 12 December 2018
Temperature: 0.0°C (32°F)
Dewpoint: -6.0°C (21°F) [RH = 64%]
Pressure (altimeter): 30.41 inches Hg (1030.0 mb)
Winds: from the SE (130 degrees) at 8 MPH (7 knots; 3.6 m/s)
Visibility: 6 or more miles (10+ km)
Ceiling: at least 12,000 feet AGL
Clouds: few clouds at 2000 feet AGL
Weather: no significant weather observed at this time

METAR text: ENBR 122050Z 12004KT 9999 FEW025 M00/M06 Q1030 RMK WIND 1200FT 14015KT
Conditions at: ENBR (BERGEN/FLESLAND , NO) observed 2050 UTC 12 December 2018
Temperature: 0.0°C (32°F)
Dewpoint: -6.0°C (21°F) [RH = 64%]
Pressure (altimeter): 30.41 inches Hg (1030.0 mb)
Winds: from the ESE (120 degrees) at 5 MPH (4 knots; 2.1 m/s)
Visibility: 6 or more miles (10+ km)
Ceiling: at least 12,000 feet AGL
Clouds: few clouds at 2500 feet AGL
Weather: no significant weather observed at this time

Forecast for: ENBR (BERGEN/FLESLAND , NO)
Text: ENBR 1218/1318 13006KT CAVOK
Forecast period: 1800 UTC 12 December 2018 to 1800 UTC 13 December 2018
Forecast type: FROM: standard forecast or significant change
Winds: from the SE (130 degrees) at 7 MPH (6 knots; 3.1 m/s)
Visibility: 6 or more miles 10+ km)
Ceiling: unknown
Clouds: missing
Weather: NSW  (no significant weather)